sensor_id;sensor_type;location;lat;lon;timestamp;P1;durP1;ratioP1;P2;durP2;ratioP2
61709;SDS011;47633;51.494;5.386;2023-06-14T00:01:24;7.47;;;4.80;;
61709;SDS011;47633;51.494;5.386;2023-06-14T00:03:50;6.68;;;4.65;;
61709;SDS011;47633;51.494;5.386;2023-06-14T00:06:15;6.88;;;5.13;;
61709;SDS011;47633;51.494;5.386;2023-06-14T00:08:40;6.83;;;4.93;;
61709;SDS011;47633;51.494;5.386;2023-06-14T00:11:06;6.50;;;4.82;;
61709;SDS011;47633;51.494;5.386;2023-06-14T00:13:32;6.00;;;4.43;;
61709;SDS011;47633;51.494;5.386;2023-06-14T00:15:58;7.80;;;4.95;;
61709;SDS011;47633;51.494;5.386;2023-06-14T00:18:23;6.40;;;4.53;;
61709;SDS011;47633;51.494;5.386;2023-06-14T00:20:49;5.97;;;4.43;;
61709;SDS011;47633;51.494;5.386;2023-06-14T00:23:15;6.00;;;4.75;;
61709;SDS011;47633;51.494;5.386;2023-06-14T00:25:41;8.77;;;4.82;;
61709;SDS011;47633;51.494;5.386;2023-06-14T00:28:06;7.32;;;5.07;;
61709;SDS011;47633;51.494;5.386;2023-06-14T00:30:31;6.70;;;4.77;;
61709;SDS011;47633;51.494;5.386;2023-06-14T00:32:57;6.28;;;4.50;;
61709;SDS011;47633;51.494;5.386;2023-06-14T00:35:23;7.53;;;4.45;;
61709;SDS011;47633;51.494;5.386;2023-06-14T00:37:48;6.65;;;4.25;;
61709;SDS011;47633;51.494;5.386;2023-06-14T00:40:14;5.45;;;4.43;;
61709;SDS011;47633;51.494;5.386;2023-06-14T00:42:39;5.82;;;4.47;;
61709;SDS011;47633;51.494;5.386;2023-06-14T00:45:04;6.57;;;4.50;;
61709;SDS011;47633;51.494;5.386;2023-06-14T00:47:30;5.90;;;4.47;;
61709;SDS011;47633;51.494;5.386;2023-06-14T00:49:55;6.10;;;4.47;;
61709;SDS011;47633;51.494;5.386;2023-06-14T00:52:22;6.30;;;4.38;;
61709;SDS011;47633;51.494;5.386;2023-06-14T00:54:49;6.25;;;4.57;;
61709;SDS011;47633;51.494;5.386;2023-06-14T00:57:15;6.25;;;4.45;;
61709;SDS011;47633;51.494;5.386;2023-06-14T00:59:44;6.63;;;4.40;;
61709;SDS011;47633;51.494;5.386;2023-06-14T01:02:11;6.43;;;4.55;;
61709;SDS011;47633;51.494;5.386;2023-06-14T01:04:37;7.22;;;4.30;;
61709;SDS011;47633;51.494;5.386;2023-06-14T01:15:31;6.75;;;4.40;;
61709;SDS011;47633;51.494;5.386;2023-06-14T01:17:56;6.53;;;4.50;;
61709;SDS011;47633;51.494;5.386;2023-06-14T01:20:28;6.28;;;4.15;;
61709;SDS011;47633;51.494;5.386;2023-06-14T01:22:54;6.47;;;4.18;;
61709;SDS011;47633;51.494;5.386;2023-06-14T01:25:20;6.20;;;4.70;;
61709;SDS011;47633;51.494;5.386;2023-06-14T01:27:52;5.90;;;4.30;;
61709;SDS011;47633;51.494;5.386;2023-06-14T01:30:20;7.82;;;4.50;;
61709;SDS011;47633;51.494;5.386;2023-06-14T01:32:47;6.13;;;3.78;;
61709;SDS011;47633;51.494;5.386;2023-06-14T01:35:15;7.22;;;4.68;;
61709;SDS011;47633;51.494;5.386;2023-06-14T01:37:41;6.20;;;3.97;;
61709;SDS011;47633;51.494;5.386;2023-06-14T01:40:07;6.00;;;4.38;;
61709;SDS011;47633;51.494;5.386;2023-06-14T01:42:36;5.47;;;3.83;;
61709;SDS011;47633;51.494;5.386;2023-06-14T01:45:04;7.63;;;3.92;;
61709;SDS011;47633;51.494;5.386;2023-06-14T01:47:31;8.77;;;4.75;;
61709;SDS011;47633;51.494;5.386;2023-06-14T01:49:56;5.25;;;3.85;;
61709;SDS011;47633;51.494;5.386;2023-06-14T01:52:22;5.85;;;3.83;;
61709;SDS011;47633;51.494;5.386;2023-06-14T01:54:49;8.10;;;3.83;;
61709;SDS011;47633;51.494;5.386;2023-06-14T01:57:14;6.07;;;3.60;;
61709;SDS011;47633;51.494;5.386;2023-06-14T01:59:40;6.97;;;3.53;;
61709;SDS011;47633;51.494;5.386;2023-06-14T02:02:05;5.63;;;3.83;;
61709;SDS011;47633;51.494;5.386;2023-06-14T02:04:31;6.22;;;3.80;;
61709;SDS011;47633;51.494;5.386;2023-06-14T02:06:56;5.73;;;3.67;;
61709;SDS011;47633;51.494;5.386;2023-06-14T02:09:21;5.67;;;4.13;;
61709;SDS011;47633;51.494;5.386;2023-06-14T02:11:46;5.63;;;3.63;;
61709;SDS011;47633;51.494;5.386;2023-06-14T02:14:12;6.47;;;3.85;;
61709;SDS011;47633;51.494;5.386;2023-06-14T02:16:37;7.20;;;3.38;;
61709;SDS011;47633;51.494;5.386;2023-06-14T02:19:04;4.97;;;3.30;;
61709;SDS011;47633;51.494;5.386;2023-06-14T02:21:29;7.30;;;3.75;;
61709;SDS011;47633;51.494;5.386;2023-06-14T02:23:55;6.75;;;3.83;;
61709;SDS011;47633;51.494;5.386;2023-06-14T02:26:20;6.57;;;3.88;;
61709;SDS011;47633;51.494;5.386;2023-06-14T02:28:47;5.90;;;3.90;;
61709;SDS011;47633;51.494;5.386;2023-06-14T02:31:12;6.82;;;3.70;;
61709;SDS011;47633;51.494;5.386;2023-06-14T02:33:38;5.37;;;3.47;;
61709;SDS011;47633;51.494;5.386;2023-06-14T02:36:03;5.60;;;3.95;;
61709;SDS011;47633;51.494;5.386;2023-06-14T02:38:28;5.53;;;3.65;;
61709;SDS011;47633;51.494;5.386;2023-06-14T02:40:54;6.47;;;3.67;;
61709;SDS011;47633;51.494;5.386;2023-06-14T02:43:19;5.60;;;3.63;;
61709;SDS011;47633;51.494;5.386;2023-06-14T02:45:45;7.38;;;3.13;;
61709;SDS011;47633;51.494;5.386;2023-06-14T02:48:10;6.87;;;3.73;;
61709;SDS011;47633;51.494;5.386;2023-06-14T02:50:36;5.63;;;3.53;;
61709;SDS011;47633;51.494;5.386;2023-06-14T02:53:01;5.25;;;3.40;;
61709;SDS011;47633;51.494;5.386;2023-06-14T02:55:27;5.80;;;3.50;;
61709;SDS011;47633;51.494;5.386;2023-06-14T02:57:53;7.72;;;3.60;;
61709;SDS011;47633;51.494;5.386;2023-06-14T03:00:19;7.53;;;3.30;;
61709;SDS011;47633;51.494;5.386;2023-06-14T03:02:44;5.15;;;3.30;;
61709;SDS011;47633;51.494;5.386;2023-06-14T03:05:10;5.50;;;3.33;;
61709;SDS011;47633;51.494;5.386;2023-06-14T03:07:36;6.55;;;3.60;;
61709;SDS011;47633;51.494;5.386;2023-06-14T03:10:05;5.72;;;3.30;;
61709;SDS011;47633;51.494;5.386;2023-06-14T03:12:34;5.47;;;3.75;;
61709;SDS011;47633;51.494;5.386;2023-06-14T03:15:00;6.13;;;3.58;;
61709;SDS011;47633;51.494;5.386;2023-06-14T03:17:29;5.10;;;3.30;;
61709;SDS011;47633;51.494;5.386;2023-06-14T03:19:58;5.38;;;3.58;;
61709;SDS011;47633;51.494;5.386;2023-06-14T03:22:23;5.40;;;3.38;;
61709;SDS011;47633;51.494;5.386;2023-06-14T03:24:50;4.72;;;3.38;;
61709;SDS011;47633;51.494;5.386;2023-06-14T03:27:17;4.78;;;3.25;;
61709;SDS011;47633;51.494;5.386;2023-06-14T03:29:42;5.30;;;3.50;;
61709;SDS011;47633;51.494;5.386;2023-06-14T03:32:08;6.13;;;3.50;;
61709;SDS011;47633;51.494;5.386;2023-06-14T03:34:33;5.38;;;3.67;;
61709;SDS011;47633;51.494;5.386;2023-06-14T03:36:58;5.78;;;3.53;;
61709;SDS011;47633;51.494;5.386;2023-06-14T03:39:24;4.88;;;3.05;;
61709;SDS011;47633;51.494;5.386;2023-06-14T03:41:49;4.95;;;3.10;;
61709;SDS011;47633;51.494;5.386;2023-06-14T03:44:16;5.00;;;3.17;;
61709;SDS011;47633;51.494;5.386;2023-06-14T03:46:43;6.30;;;3.30;;
61709;SDS011;47633;51.494;5.386;2023-06-14T03:49:08;6.05;;;3.42;;
61709;SDS011;47633;51.494;5.386;2023-06-14T03:51:34;7.60;;;3.60;;
61709;SDS011;47633;51.494;5.386;2023-06-14T03:54:00;6.18;;;3.53;;
61709;SDS011;47633;51.494;5.386;2023-06-14T03:56:26;5.97;;;3.45;;
61709;SDS011;47633;51.494;5.386;2023-06-14T03:58:52;6.20;;;3.22;;
61709;SDS011;47633;51.494;5.386;2023-06-14T04:01:17;5.43;;;3.33;;
61709;SDS011;47633;51.494;5.386;2023-06-14T04:03:42;5.68;;;3.33;;
61709;SDS011;47633;51.494;5.386;2023-06-14T04:06:08;5.72;;;3.17;;
61709;SDS011;47633;51.494;5.386;2023-06-14T04:08:33;5.85;;;3.20;;
61709;SDS011;47633;51.494;5.386;2023-06-14T04:11:00;5.57;;;2.97;;
61709;SDS011;47633;51.494;5.386;2023-06-14T04:13:25;5.88;;;3.30;;
61709;SDS011;47633;51.494;5.386;2023-06-14T04:15:51;6.57;;;3.30;;
61709;SDS011;47633;51.494;5.386;2023-06-14T04:18:16;5.68;;;3.22;;
61709;SDS011;47633;51.494;5.386;2023-06-14T04:20:41;6.30;;;3.40;;
61709;SDS011;47633;51.494;5.386;2023-06-14T04:23:13;5.93;;;3.20;;
61709;SDS011;47633;51.494;5.386;2023-06-14T04:25:40;6.03;;;3.00;;
61709;SDS011;47633;51.494;5.386;2023-06-14T04:28:10;6.22;;;3.10;;
61709;SDS011;47633;51.494;5.386;2023-06-14T04:30:36;4.93;;;2.95;;
61709;SDS011;47633;51.494;5.386;2023-06-14T04:33:03;7.55;;;3.47;;
61709;SDS011;47633;51.494;5.386;2023-06-14T04:35:30;5.72;;;3.28;;
61709;SDS011;47633;51.494;5.386;2023-06-14T04:37:57;5.57;;;3.03;;
61709;SDS011;47633;51.494;5.386;2023-06-14T04:40:23;4.95;;;3.10;;
61709;SDS011;47633;51.494;5.386;2023-06-14T04:42:48;6.50;;;3.03;;
61709;SDS011;47633;51.494;5.386;2023-06-14T04:45:15;6.05;;;3.25;;
61709;SDS011;47633;51.494;5.386;2023-06-14T04:47:41;6.07;;;3.17;;
61709;SDS011;47633;51.494;5.386;2023-06-14T04:50:07;6.05;;;3.42;;
61709;SDS011;47633;51.494;5.386;2023-06-14T04:52:32;10.30;;;3.10;;
61709;SDS011;47633;51.494;5.386;2023-06-14T04:55:00;5.57;;;3.08;;
61709;SDS011;47633;51.494;5.386;2023-06-14T04:57:26;5.18;;;3.20;;
61709;SDS011;47633;51.494;5.386;2023-06-14T04:59:52;5.07;;;3.08;;
61709;SDS011;47633;51.494;5.386;2023-06-14T05:02:21;6.03;;;3.00;;
61709;SDS011;47633;51.494;5.386;2023-06-14T05:04:48;6.60;;;2.80;;
61709;SDS011;47633;51.494;5.386;2023-06-14T05:07:13;5.38;;;3.00;;
61709;SDS011;47633;51.494;5.386;2023-06-14T05:09:39;5.15;;;3.10;;
61709;SDS011;47633;51.494;5.386;2023-06-14T05:12:04;5.95;;;3.28;;
61709;SDS011;47633;51.494;5.386;2023-06-14T05:14:32;5.45;;;3.05;;
61709;SDS011;47633;51.494;5.386;2023-06-14T05:16:58;5.65;;;2.95;;
61709;SDS011;47633;51.494;5.386;2023-06-14T05:19:23;5.20;;;3.00;;
61709;SDS011;47633;51.494;5.386;2023-06-14T05:21:48;5.38;;;3.42;;
61709;SDS011;47633;51.494;5.386;2023-06-14T05:24:14;5.23;;;2.90;;
61709;SDS011;47633;51.494;5.386;2023-06-14T05:26:42;5.82;;;3.00;;
61709;SDS011;47633;51.494;5.386;2023-06-14T05:29:07;5.53;;;3.28;;
61709;SDS011;47633;51.494;5.386;2023-06-14T05:31:32;6.07;;;3.22;;
61709;SDS011;47633;51.494;5.386;2023-06-14T05:33:57;5.43;;;3.10;;
61709;SDS011;47633;51.494;5.386;2023-06-14T05:36:23;5.05;;;2.85;;
61709;SDS011;47633;51.494;5.386;2023-06-14T05:38:48;6.20;;;3.20;;
61709;SDS011;47633;51.494;5.386;2023-06-14T05:41:15;5.75;;;3.08;;
61709;SDS011;47633;51.494;5.386;2023-06-14T05:43:41;6.95;;;3.00;;
61709;SDS011;47633;51.494;5.386;2023-06-14T05:46:06;6.45;;;3.03;;
61709;SDS011;47633;51.494;5.386;2023-06-14T05:48:31;5.68;;;3.17;;
61709;SDS011;47633;51.494;5.386;2023-06-14T05:50:57;4.97;;;2.80;;
61709;SDS011;47633;51.494;5.386;2023-06-14T05:53:22;6.78;;;3.10;;
61709;SDS011;47633;51.494;5.386;2023-06-14T05:55:47;4.70;;;2.92;;
61709;SDS011;47633;51.494;5.386;2023-06-14T05:58:14;8.43;;;3.63;;
61709;SDS011;47633;51.494;5.386;2023-06-14T06:00:39;10.75;;;3.72;;
61709;SDS011;47633;51.494;5.386;2023-06-14T06:03:04;7.53;;;3.50;;
61709;SDS011;47633;51.494;5.386;2023-06-14T06:05:33;8.40;;;3.97;;
61709;SDS011;47633;51.494;5.386;2023-06-14T06:08:00;11.05;;;4.55;;
61709;SDS011;47633;51.494;5.386;2023-06-14T06:10:26;8.70;;;4.00;;
61709;SDS011;47633;51.494;5.386;2023-06-14T06:12:51;9.55;;;3.65;;
61709;SDS011;47633;51.494;5.386;2023-06-14T06:15:19;7.72;;;4.20;;
61709;SDS011;47633;51.494;5.386;2023-06-14T06:17:44;8.02;;;4.65;;
61709;SDS011;47633;51.494;5.386;2023-06-14T06:20:10;6.55;;;3.60;;
61709;SDS011;47633;51.494;5.386;2023-06-14T06:22:36;7.22;;;4.10;;
61709;SDS011;47633;51.494;5.386;2023-06-14T06:25:02;6.40;;;3.83;;
61709;SDS011;47633;51.494;5.386;2023-06-14T06:27:27;8.48;;;3.80;;
61709;SDS011;47633;51.494;5.386;2023-06-14T06:29:53;8.40;;;3.45;;
61709;SDS011;47633;51.494;5.386;2023-06-14T06:32:18;10.03;;;3.77;;
61709;SDS011;47633;51.494;5.386;2023-06-14T06:34:43;10.45;;;3.85;;
61709;SDS011;47633;51.494;5.386;2023-06-14T06:37:08;7.23;;;4.17;;
61709;SDS011;47633;51.494;5.386;2023-06-14T06:39:34;6.55;;;3.92;;
61709;SDS011;47633;51.494;5.386;2023-06-14T06:41:59;11.27;;;3.97;;
61709;SDS011;47633;51.494;5.386;2023-06-14T06:44:25;7.88;;;3.55;;
61709;SDS011;47633;51.494;5.386;2023-06-14T06:46:50;9.75;;;3.83;;
61709;SDS011;47633;51.494;5.386;2023-06-14T06:49:15;9.63;;;4.13;;
61709;SDS011;47633;51.494;5.386;2023-06-14T06:51:41;6.72;;;3.63;;
61709;SDS011;47633;51.494;5.386;2023-06-14T06:54:07;9.15;;;4.03;;
61709;SDS011;47633;51.494;5.386;2023-06-14T06:56:33;6.50;;;3.45;;
61709;SDS011;47633;51.494;5.386;2023-06-14T06:58:59;8.98;;;3.58;;
61709;SDS011;47633;51.494;5.386;2023-06-14T07:01:25;10.40;;;3.78;;
61709;SDS011;47633;51.494;5.386;2023-06-14T07:03:51;12.38;;;3.70;;
61709;SDS011;47633;51.494;5.386;2023-06-14T07:06:17;6.80;;;3.30;;
61709;SDS011;47633;51.494;5.386;2023-06-14T07:08:44;7.32;;;3.35;;
61709;SDS011;47633;51.494;5.386;2023-06-14T07:11:09;11.98;;;3.53;;
61709;SDS011;47633;51.494;5.386;2023-06-14T07:13:34;10.38;;;3.72;;
61709;SDS011;47633;51.494;5.386;2023-06-14T07:16:00;9.85;;;3.53;;
61709;SDS011;47633;51.494;5.386;2023-06-14T07:18:26;8.48;;;3.30;;
61709;SDS011;47633;51.494;5.386;2023-06-14T07:20:51;21.52;;;4.68;;
61709;SDS011;47633;51.494;5.386;2023-06-14T07:23:18;21.73;;;4.97;;
61709;SDS011;47633;51.494;5.386;2023-06-14T07:25:43;9.43;;;3.78;;
61709;SDS011;47633;51.494;5.386;2023-06-14T07:28:08;14.85;;;3.42;;
61709;SDS011;47633;51.494;5.386;2023-06-14T07:30:34;15.93;;;3.78;;
61709;SDS011;47633;51.494;5.386;2023-06-14T07:33:00;11.32;;;3.00;;
61709;SDS011;47633;51.494;5.386;2023-06-14T07:35:26;10.65;;;3.60;;
61709;SDS011;47633;51.494;5.386;2023-06-14T07:37:51;12.82;;;4.03;;
61709;SDS011;47633;51.494;5.386;2023-06-14T07:40:16;8.23;;;3.00;;
61709;SDS011;47633;51.494;5.386;2023-06-14T07:42:42;8.25;;;3.17;;
61709;SDS011;47633;51.494;5.386;2023-06-14T07:45:07;8.30;;;2.93;;
61709;SDS011;47633;51.494;5.386;2023-06-14T07:47:32;8.82;;;3.47;;
61709;SDS011;47633;51.494;5.386;2023-06-14T07:49:58;7.88;;;3.30;;
61709;SDS011;47633;51.494;5.386;2023-06-14T07:52:23;8.20;;;3.45;;
61709;SDS011;47633;51.494;5.386;2023-06-14T07:54:49;9.20;;;3.40;;
61709;SDS011;47633;51.494;5.386;2023-06-14T07:57:14;8.68;;;3.30;;
61709;SDS011;47633;51.494;5.386;2023-06-14T07:59:39;7.65;;;3.63;;
61709;SDS011;47633;51.494;5.386;2023-06-14T08:02:05;6.75;;;3.35;;
61709;SDS011;47633;51.494;5.386;2023-06-14T08:04:31;8.48;;;3.15;;
61709;SDS011;47633;51.494;5.386;2023-06-14T08:06:56;6.13;;;3.55;;
61709;SDS011;47633;51.494;5.386;2023-06-14T08:09:22;7.60;;;3.33;;
61709;SDS011;47633;51.494;5.386;2023-06-14T08:11:48;8.55;;;3.10;;
61709;SDS011;47633;51.494;5.386;2023-06-14T08:14:13;13.95;;;4.00;;
61709;SDS011;47633;51.494;5.386;2023-06-14T08:16:38;8.10;;;3.22;;
61709;SDS011;47633;51.494;5.386;2023-06-14T08:19:03;6.17;;;3.30;;
61709;SDS011;47633;51.494;5.386;2023-06-14T08:21:29;8.68;;;2.97;;
61709;SDS011;47633;51.494;5.386;2023-06-14T08:23:57;7.63;;;3.10;;
61709;SDS011;47633;51.494;5.386;2023-06-14T08:26:22;15.20;;;3.30;;
61709;SDS011;47633;51.494;5.386;2023-06-14T08:28:48;9.50;;;2.92;;
61709;SDS011;47633;51.494;5.386;2023-06-14T08:31:13;5.93;;;2.80;;
61709;SDS011;47633;51.494;5.386;2023-06-14T08:33:38;8.27;;;3.17;;
61709;SDS011;47633;51.494;5.386;2023-06-14T08:36:07;6.80;;;3.10;;
61709;SDS011;47633;51.494;5.386;2023-06-14T08:38:33;10.88;;;2.88;;
61709;SDS011;47633;51.494;5.386;2023-06-14T08:40:58;6.78;;;3.00;;
61709;SDS011;47633;51.494;5.386;2023-06-14T08:43:25;9.05;;;2.90;;
61709;SDS011;47633;51.494;5.386;2023-06-14T08:45:52;7.60;;;3.30;;
61709;SDS011;47633;51.494;5.386;2023-06-14T08:48:23;5.97;;;2.90;;
61709;SDS011;47633;51.494;5.386;2023-06-14T08:50:51;5.85;;;3.17;;
61709;SDS011;47633;51.494;5.386;2023-06-14T08:53:26;6.97;;;2.95;;
61709;SDS011;47633;51.494;5.386;2023-06-14T08:55:53;6.60;;;2.90;;
61709;SDS011;47633;51.494;5.386;2023-06-14T08:58:20;10.13;;;2.55;;
61709;SDS011;47633;51.494;5.386;2023-06-14T09:00:49;6.95;;;3.08;;
61709;SDS011;47633;51.494;5.386;2023-06-14T09:03:17;8.52;;;2.85;;
61709;SDS011;47633;51.494;5.386;2023-06-14T09:05:45;4.25;;;2.17;;
61709;SDS011;47633;51.494;5.386;2023-06-14T09:08:12;8.63;;;2.63;;
61709;SDS011;47633;51.494;5.386;2023-06-14T09:10:37;6.68;;;2.28;;
61709;SDS011;47633;51.494;5.386;2023-06-14T09:13:05;8.25;;;2.45;;
61709;SDS011;47633;51.494;5.386;2023-06-14T09:15:31;9.85;;;2.85;;
61709;SDS011;47633;51.494;5.386;2023-06-14T09:17:57;5.75;;;2.30;;
61709;SDS011;47633;51.494;5.386;2023-06-14T09:20:23;6.88;;;2.70;;
61709;SDS011;47633;51.494;5.386;2023-06-14T09:22:49;8.43;;;2.30;;
61709;SDS011;47633;51.494;5.386;2023-06-14T09:25:14;5.70;;;2.40;;
61709;SDS011;47633;51.494;5.386;2023-06-14T09:27:40;6.63;;;2.40;;
61709;SDS011;47633;51.494;5.386;2023-06-14T09:30:08;5.32;;;2.58;;
61709;SDS011;47633;51.494;5.386;2023-06-14T09:32:38;6.93;;;2.90;;
61709;SDS011;47633;51.494;5.386;2023-06-14T09:35:07;4.43;;;2.65;;
61709;SDS011;47633;51.494;5.386;2023-06-14T09:37:33;6.95;;;2.83;;
61709;SDS011;47633;51.494;5.386;2023-06-14T09:40:00;6.97;;;2.55;;
61709;SDS011;47633;51.494;5.386;2023-06-14T09:42:25;4.55;;;2.40;;
61709;SDS011;47633;51.494;5.386;2023-06-14T09:44:51;3.97;;;2.08;;
61709;SDS011;47633;51.494;5.386;2023-06-14T09:47:22;7.53;;;3.03;;
61709;SDS011;47633;51.494;5.386;2023-06-14T09:49:50;5.10;;;2.42;;
61709;SDS011;47633;51.494;5.386;2023-06-14T09:52:16;4.60;;;2.03;;
61709;SDS011;47633;51.494;5.386;2023-06-14T09:54:43;4.00;;;2.20;;
61709;SDS011;47633;51.494;5.386;2023-06-14T09:57:20;4.78;;;2.42;;
61709;SDS011;47633;51.494;5.386;2023-06-14T09:59:47;4.00;;;2.20;;
61709;SDS011;47633;51.494;5.386;2023-06-14T10:02:17;8.75;;;2.28;;
61709;SDS011;47633;51.494;5.386;2023-06-14T10:04:46;6.60;;;2.15;;
61709;SDS011;47633;51.494;5.386;2023-06-14T10:09:45;5.78;;;2.28;;
61709;SDS011;47633;51.494;5.386;2023-06-14T10:12:15;4.63;;;2.08;;
61709;SDS011;47633;51.494;5.386;2023-06-14T10:14:46;4.72;;;2.00;;
61709;SDS011;47633;51.494;5.386;2023-06-14T10:17:17;4.82;;;1.90;;
61709;SDS011;47633;51.494;5.386;2023-06-14T10:19:55;8.55;;;2.40;;
61709;SDS011;47633;51.494;5.386;2023-06-14T10:22:35;4.13;;;2.15;;
61709;SDS011;47633;51.494;5.386;2023-06-14T10:25:12;5.97;;;2.45;;
61709;SDS011;47633;51.494;5.386;2023-06-14T10:27:38;4.95;;;1.80;;
61709;SDS011;47633;51.494;5.386;2023-06-14T10:30:04;7.30;;;2.30;;
61709;SDS011;47633;51.494;5.386;2023-06-14T10:32:32;4.45;;;1.95;;
61709;SDS011;47633;51.494;5.386;2023-06-14T10:35:05;4.75;;;2.30;;
61709;SDS011;47633;51.494;5.386;2023-06-14T10:37:32;4.65;;;2.00;;
61709;SDS011;47633;51.494;5.386;2023-06-14T10:39:57;3.83;;;1.80;;
61709;SDS011;47633;51.494;5.386;2023-06-14T10:42:23;3.95;;;1.73;;
61709;SDS011;47633;51.494;5.386;2023-06-14T10:44:58;7.90;;;1.80;;
61709;SDS011;47633;51.494;5.386;2023-06-14T10:47:26;3.83;;;1.70;;
61709;SDS011;47633;51.494;5.386;2023-06-14T10:49:55;5.95;;;2.00;;
61709;SDS011;47633;51.494;5.386;2023-06-14T10:52:25;5.97;;;2.30;;
61709;SDS011;47633;51.494;5.386;2023-06-14T10:57:46;4.22;;;1.80;;
61709;SDS011;47633;51.494;5.386;2023-06-14T11:00:23;5.20;;;1.90;;
61709;SDS011;47633;51.494;5.386;2023-06-14T11:05:39;4.40;;;1.73;;
61709;SDS011;47633;51.494;5.386;2023-06-14T11:10:44;6.28;;;2.47;;
61709;SDS011;47633;51.494;5.386;2023-06-14T11:13:12;4.70;;;1.88;;
61709;SDS011;47633;51.494;5.386;2023-06-14T11:15:43;4.25;;;1.80;;
61709;SDS011;47633;51.494;5.386;2023-06-14T11:18:10;5.60;;;1.77;;
61709;SDS011;47633;51.494;5.386;2023-06-14T11:20:37;5.43;;;1.73;;
61709;SDS011;47633;51.494;5.386;2023-06-14T11:23:03;5.88;;;1.95;;
61709;SDS011;47633;51.494;5.386;2023-06-14T11:25:29;3.47;;;1.40;;
61709;SDS011;47633;51.494;5.386;2023-06-14T11:27:55;3.42;;;1.52;;
61709;SDS011;47633;51.494;5.386;2023-06-14T11:30:21;4.43;;;1.52;;
61709;SDS011;47633;51.494;5.386;2023-06-14T11:32:47;6.53;;;1.70;;
61709;SDS011;47633;51.494;5.386;2023-06-14T11:35:13;3.50;;;1.60;;
61709;SDS011;47633;51.494;5.386;2023-06-14T11:37:38;4.10;;;1.67;;
61709;SDS011;47633;51.494;5.386;2023-06-14T11:40:06;3.55;;;1.50;;
61709;SDS011;47633;51.494;5.386;2023-06-14T11:42:35;5.15;;;1.60;;
61709;SDS011;47633;51.494;5.386;2023-06-14T11:45:01;5.32;;;1.70;;
61709;SDS011;47633;51.494;5.386;2023-06-14T11:47:34;4.75;;;1.70;;
61709;SDS011;47633;51.494;5.386;2023-06-14T11:50:01;4.03;;;1.60;;
61709;SDS011;47633;51.494;5.386;2023-06-14T11:52:26;4.57;;;1.63;;
61709;SDS011;47633;51.494;5.386;2023-06-14T11:54:52;4.57;;;1.45;;
61709;SDS011;47633;51.494;5.386;2023-06-14T11:57:19;3.30;;;1.50;;
61709;SDS011;47633;51.494;5.386;2023-06-14T11:59:44;3.58;;;1.70;;
61709;SDS011;47633;51.494;5.386;2023-06-14T12:02:19;4.25;;;1.73;;
61709;SDS011;47633;51.494;5.386;2023-06-14T12:04:46;4.68;;;1.70;;
61709;SDS011;47633;51.494;5.386;2023-06-14T12:07:14;3.45;;;1.50;;
61709;SDS011;47633;51.494;5.386;2023-06-14T12:09:41;3.88;;;1.38;;
61709;SDS011;47633;51.494;5.386;2023-06-14T12:12:10;3.70;;;1.60;;
61709;SDS011;47633;51.494;5.386;2023-06-14T12:14:37;4.85;;;1.83;;
61709;SDS011;47633;51.494;5.386;2023-06-14T12:17:05;4.90;;;1.90;;
61709;SDS011;47633;51.494;5.386;2023-06-14T12:19:33;2.95;;;1.52;;
61709;SDS011;47633;51.494;5.386;2023-06-14T12:22:06;3.58;;;1.20;;
61709;SDS011;47633;51.494;5.386;2023-06-14T12:24:31;3.40;;;1.42;;
61709;SDS011;47633;51.494;5.386;2023-06-14T12:26:58;2.90;;;1.50;;
61709;SDS011;47633;51.494;5.386;2023-06-14T12:29:28;4.30;;;1.75;;
61709;SDS011;47633;51.494;5.386;2023-06-14T12:31:53;2.97;;;1.30;;
61709;SDS011;47633;51.494;5.386;2023-06-14T12:34:21;4.88;;;1.40;;
61709;SDS011;47633;51.494;5.386;2023-06-14T12:36:47;4.90;;;1.50;;
61709;SDS011;47633;51.494;5.386;2023-06-14T12:39:12;3.97;;;1.45;;
61709;SDS011;47633;51.494;5.386;2023-06-14T12:41:38;3.45;;;1.40;;
61709;SDS011;47633;51.494;5.386;2023-06-14T12:44:04;3.88;;;1.70;;
61709;SDS011;47633;51.494;5.386;2023-06-14T12:46:32;4.22;;;1.50;;
61709;SDS011;47633;51.494;5.386;2023-06-14T12:48:58;4.43;;;1.50;;
61709;SDS011;47633;51.494;5.386;2023-06-14T12:51:23;4.07;;;1.35;;
61709;SDS011;47633;51.494;5.386;2023-06-14T12:53:50;3.97;;;1.67;;
61709;SDS011;47633;51.494;5.386;2023-06-14T12:56:15;3.40;;;1.45;;
61709;SDS011;47633;51.494;5.386;2023-06-14T12:58:41;4.32;;;1.45;;
61709;SDS011;47633;51.494;5.386;2023-06-14T13:01:07;3.83;;;1.33;;
61709;SDS011;47633;51.494;5.386;2023-06-14T13:03:33;4.13;;;1.35;;
61709;SDS011;47633;51.494;5.386;2023-06-14T13:06:01;3.03;;;1.42;;
61709;SDS011;47633;51.494;5.386;2023-06-14T13:08:28;3.38;;;1.40;;
61709;SDS011;47633;51.494;5.386;2023-06-14T13:10:54;5.38;;;1.50;;
61709;SDS011;47633;51.494;5.386;2023-06-14T13:13:19;3.47;;;1.47;;
61709;SDS011;47633;51.494;5.386;2023-06-14T13:15:45;3.60;;;1.20;;
61709;SDS011;47633;51.494;5.386;2023-06-14T13:18:11;3.55;;;1.35;;
61709;SDS011;47633;51.494;5.386;2023-06-14T13:20:38;4.63;;;1.50;;
61709;SDS011;47633;51.494;5.386;2023-06-14T13:23:04;3.58;;;1.42;;
61709;SDS011;47633;51.494;5.386;2023-06-14T13:25:32;5.30;;;1.50;;
61709;SDS011;47633;51.494;5.386;2023-06-14T13:28:01;2.63;;;1.05;;
61709;SDS011;47633;51.494;5.386;2023-06-14T13:30:27;2.95;;;1.40;;
61709;SDS011;47633;51.494;5.386;2023-06-14T13:32:52;3.10;;;1.40;;
61709;SDS011;47633;51.494;5.386;2023-06-14T13:35:18;3.42;;;1.40;;
61709;SDS011;47633;51.494;5.386;2023-06-14T13:37:44;3.30;;;1.55;;
61709;SDS011;47633;51.494;5.386;2023-06-14T13:40:09;3.60;;;1.50;;
61709;SDS011;47633;51.494;5.386;2023-06-14T13:42:35;3.58;;;1.40;;
61709;SDS011;47633;51.494;5.386;2023-06-14T13:45:01;4.05;;;1.30;;
61709;SDS011;47633;51.494;5.386;2023-06-14T13:47:27;3.10;;;1.33;;
61709;SDS011;47633;51.494;5.386;2023-06-14T13:49:53;3.20;;;1.30;;
61709;SDS011;47633;51.494;5.386;2023-06-14T13:52:18;5.32;;;1.60;;
61709;SDS011;47633;51.494;5.386;2023-06-14T13:54:43;2.70;;;1.20;;
61709;SDS011;47633;51.494;5.386;2023-06-14T13:57:08;7.07;;;1.80;;
61709;SDS011;47633;51.494;5.386;2023-06-14T13:59:34;4.00;;;1.40;;
61709;SDS011;47633;51.494;5.386;2023-06-14T14:01:59;2.58;;;1.30;;
61709;SDS011;47633;51.494;5.386;2023-06-14T14:04:25;4.32;;;1.60;;
61709;SDS011;47633;51.494;5.386;2023-06-14T14:06:51;3.42;;;1.25;;
61709;SDS011;47633;51.494;5.386;2023-06-14T14:09:16;2.70;;;1.33;;
61709;SDS011;47633;51.494;5.386;2023-06-14T14:11:41;4.30;;;1.30;;
61709;SDS011;47633;51.494;5.386;2023-06-14T14:14:07;2.95;;;1.30;;
61709;SDS011;47633;51.494;5.386;2023-06-14T14:16:33;4.47;;;1.48;;
61709;SDS011;47633;51.494;5.386;2023-06-14T14:18:59;4.82;;;1.33;;
61709;SDS011;47633;51.494;5.386;2023-06-14T14:21:25;2.83;;;1.17;;
61709;SDS011;47633;51.494;5.386;2023-06-14T14:23:50;5.13;;;1.30;;
61709;SDS011;47633;51.494;5.386;2023-06-14T14:26:16;3.25;;;1.30;;
61709;SDS011;47633;51.494;5.386;2023-06-14T14:28:41;3.58;;;1.30;;
61709;SDS011;47633;51.494;5.386;2023-06-14T14:31:06;3.42;;;1.40;;
61709;SDS011;47633;51.494;5.386;2023-06-14T14:33:32;2.72;;;1.30;;
61709;SDS011;47633;51.494;5.386;2023-06-14T14:35:57;3.45;;;1.25;;
61709;SDS011;47633;51.494;5.386;2023-06-14T14:38:22;3.65;;;1.40;;
61709;SDS011;47633;51.494;5.386;2023-06-14T14:40:48;3.22;;;1.10;;
61709;SDS011;47633;51.494;5.386;2023-06-14T14:43:13;2.87;;;1.40;;
61709;SDS011;47633;51.494;5.386;2023-06-14T14:45:38;4.22;;;1.25;;
61709;SDS011;47633;51.494;5.386;2023-06-14T14:48:04;3.47;;;1.52;;
61709;SDS011;47633;51.494;5.386;2023-06-14T14:50:30;3.10;;;1.20;;
61709;SDS011;47633;51.494;5.386;2023-06-14T14:52:55;2.90;;;0.98;;
61709;SDS011;47633;51.494;5.386;2023-06-14T14:55:21;2.92;;;1.33;;
61709;SDS011;47633;51.494;5.386;2023-06-14T14:57:46;3.72;;;1.45;;
61709;SDS011;47633;51.494;5.386;2023-06-14T15:00:15;3.30;;;1.20;;
61709;SDS011;47633;51.494;5.386;2023-06-14T15:02:41;2.65;;;1.33;;